sensor_id;sensor_type;location;lat;lon;timestamp;P1;durP1;ratioP1;P2;durP2;ratioP2
21733;SDS011;11029;47.820;10.534;2024-01-06T00:00:38;1.48;;;1.38;;
21733;SDS011;11029;47.820;10.534;2024-01-06T00:03:24;2.30;;;1.38;;
21733;SDS011;11029;47.820;10.534;2024-01-06T00:06:13;1.58;;;1.30;;
21733;SDS011;11029;47.820;10.534;2024-01-06T00:08:59;2.10;;;1.30;;
21733;SDS011;11029;47.820;10.534;2024-01-06T00:11:45;1.25;;;1.15;;
21733;SDS011;11029;47.820;10.534;2024-01-06T00:14:31;1.40;;;1.30;;
21733;SDS011;11029;47.820;10.534;2024-01-06T00:17:16;2.50;;;1.90;;
21733;SDS011;11029;47.820;10.534;2024-01-06T00:20:02;1.65;;;1.55;;
21733;SDS011;11029;47.820;10.534;2024-01-06T00:22:49;1.73;;;1.63;;
21733;SDS011;11029;47.820;10.534;2024-01-06T00:25:35;1.95;;;1.80;;
21733;SDS011;11029;47.820;10.534;2024-01-06T00:28:20;1.95;;;1.85;;
21733;SDS011;11029;47.820;10.534;2024-01-06T00:31:06;2.05;;;1.60;;
21733;SDS011;11029;47.820;10.534;2024-01-06T00:33:52;2.10;;;1.80;;
21733;SDS011;11029;47.820;10.534;2024-01-06T00:36:38;1.60;;;1.50;;
21733;SDS011;11029;47.820;10.534;2024-01-06T00:39:23;1.65;;;1.45;;
21733;SDS011;11029;47.820;10.534;2024-01-06T00:42:08;1.42;;;1.33;;
21733;SDS011;11029;47.820;10.534;2024-01-06T00:44:54;1.60;;;1.50;;
21733;SDS011;11029;47.820;10.534;2024-01-06T00:47:39;1.67;;;1.58;;
21733;SDS011;11029;47.820;10.534;2024-01-06T00:50:25;1.63;;;1.48;;
21733;SDS011;11029;47.820;10.534;2024-01-06T00:53:11;2.83;;;2.10;;
21733;SDS011;11029;47.820;10.534;2024-01-06T00:55:57;3.00;;;2.33;;
21733;SDS011;11029;47.820;10.534;2024-01-06T00:58:42;3.72;;;2.80;;
21733;SDS011;11029;47.820;10.534;2024-01-06T01:01:28;3.13;;;2.83;;
21733;SDS011;11029;47.820;10.534;2024-01-06T01:04:14;2.85;;;2.60;;
21733;SDS011;11029;47.820;10.534;2024-01-06T01:07:00;2.80;;;2.03;;
21733;SDS011;11029;47.820;10.534;2024-01-06T01:09:45;2.53;;;2.30;;
21733;SDS011;11029;47.820;10.534;2024-01-06T01:12:31;2.47;;;2.25;;
21733;SDS011;11029;47.820;10.534;2024-01-06T01:15:17;2.67;;;2.10;;
21733;SDS011;11029;47.820;10.534;2024-01-06T01:18:02;2.55;;;1.80;;
21733;SDS011;11029;47.820;10.534;2024-01-06T01:20:48;2.03;;;1.75;;
21733;SDS011;11029;47.820;10.534;2024-01-06T01:23:34;2.72;;;1.88;;
21733;SDS011;11029;47.820;10.534;2024-01-06T01:26:19;1.63;;;1.52;;
21733;SDS011;11029;47.820;10.534;2024-01-06T01:29:05;1.88;;;1.67;;
21733;SDS011;11029;47.820;10.534;2024-01-06T01:31:50;2.85;;;2.15;;
21733;SDS011;11029;47.820;10.534;2024-01-06T01:34:36;1.75;;;1.65;;
21733;SDS011;11029;47.820;10.534;2024-01-06T01:37:22;2.28;;;1.88;;
21733;SDS011;11029;47.820;10.534;2024-01-06T01:40:08;2.22;;;2.03;;
21733;SDS011;11029;47.820;10.534;2024-01-06T01:42:54;1.90;;;1.80;;
21733;SDS011;11029;47.820;10.534;2024-01-06T01:45:39;2.80;;;1.60;;
21733;SDS011;11029;47.820;10.534;2024-01-06T01:48:25;8.77;;;4.75;;
21733;SDS011;11029;47.820;10.534;2024-01-06T01:51:11;2.35;;;2.10;;
21733;SDS011;11029;47.820;10.534;2024-01-06T01:53:57;2.47;;;2.20;;
21733;SDS011;11029;47.820;10.534;2024-01-06T01:56:43;1.95;;;1.77;;
21733;SDS011;11029;47.820;10.534;2024-01-06T01:59:29;2.33;;;1.90;;
21733;SDS011;11029;47.820;10.534;2024-01-06T02:02:14;1.98;;;1.70;;
21733;SDS011;11029;47.820;10.534;2024-01-06T02:05:01;2.10;;;1.70;;
21733;SDS011;11029;47.820;10.534;2024-01-06T02:07:47;2.58;;;1.95;;
21733;SDS011;11029;47.820;10.534;2024-01-06T02:10:35;1.80;;;1.70;;
21733;SDS011;11029;47.820;10.534;2024-01-06T02:13:21;2.22;;;1.88;;
21733;SDS011;11029;47.820;10.534;2024-01-06T02:16:07;2.13;;;1.92;;
21733;SDS011;11029;47.820;10.534;2024-01-06T02:18:53;2.90;;;1.95;;
21733;SDS011;11029;47.820;10.534;2024-01-06T02:21:41;2.30;;;2.03;;
21733;SDS011;11029;47.820;10.534;2024-01-06T02:24:28;2.15;;;1.98;;
21733;SDS011;11029;47.820;10.534;2024-01-06T02:27:14;2.20;;;2.00;;
21733;SDS011;11029;47.820;10.534;2024-01-06T02:29:59;2.05;;;1.95;;
21733;SDS011;11029;47.820;10.534;2024-01-06T02:32:45;2.47;;;2.28;;
21733;SDS011;11029;47.820;10.534;2024-01-06T02:35:31;2.40;;;2.20;;
21733;SDS011;11029;47.820;10.534;2024-01-06T02:38:17;2.50;;;2.30;;
21733;SDS011;11029;47.820;10.534;2024-01-06T02:41:02;3.65;;;2.55;;
21733;SDS011;11029;47.820;10.534;2024-01-06T02:43:48;2.33;;;2.10;;
21733;SDS011;11029;47.820;10.534;2024-01-06T02:46:33;2.45;;;2.20;;
21733;SDS011;11029;47.820;10.534;2024-01-06T02:49:19;3.55;;;2.78;;
21733;SDS011;11029;47.820;10.534;2024-01-06T02:52:04;13.25;;;6.30;;
21733;SDS011;11029;47.820;10.534;2024-01-06T02:54:50;16.92;;;7.22;;
21733;SDS011;11029;47.820;10.534;2024-01-06T02:57:37;3.80;;;3.10;;
21733;SDS011;11029;47.820;10.534;2024-01-06T03:00:23;2.67;;;2.45;;
21733;SDS011;11029;47.820;10.534;2024-01-06T03:03:10;2.60;;;2.40;;
21733;SDS011;11029;47.820;10.534;2024-01-06T03:05:56;2.65;;;2.45;;
21733;SDS011;11029;47.820;10.534;2024-01-06T03:08:41;2.95;;;2.65;;
21733;SDS011;11029;47.820;10.534;2024-01-06T03:11:26;2.50;;;2.22;;
21733;SDS011;11029;47.820;10.534;2024-01-06T03:14:12;2.17;;;2.00;;
21733;SDS011;11029;47.820;10.534;2024-01-06T03:16:57;2.35;;;2.15;;
21733;SDS011;11029;47.820;10.534;2024-01-06T03:19:44;2.42;;;2.22;;
21733;SDS011;11029;47.820;10.534;2024-01-06T03:22:29;2.60;;;2.40;;
21733;SDS011;11029;47.820;10.534;2024-01-06T03:25:15;2.42;;;2.20;;
21733;SDS011;11029;47.820;10.534;2024-01-06T03:28:00;1.92;;;1.77;;
21733;SDS011;11029;47.820;10.534;2024-01-06T03:30:46;2.33;;;2.13;;
21733;SDS011;11029;47.820;10.534;2024-01-06T03:33:32;2.58;;;2.38;;
21733;SDS011;11029;47.820;10.534;2024-01-06T03:36:17;2.30;;;2.10;;
21733;SDS011;11029;47.820;10.534;2024-01-06T03:39:03;2.55;;;2.35;;
21733;SDS011;11029;47.820;10.534;2024-01-06T03:41:49;3.10;;;2.22;;
21733;SDS011;11029;47.820;10.534;2024-01-06T03:44:34;2.33;;;2.03;;
21733;SDS011;11029;47.820;10.534;2024-01-06T03:47:19;2.88;;;2.10;;
21733;SDS011;11029;47.820;10.534;2024-01-06T03:50:05;2.45;;;2.20;;
21733;SDS011;11029;47.820;10.534;2024-01-06T03:52:51;2.38;;;2.10;;
21733;SDS011;11029;47.820;10.534;2024-01-06T03:55:37;2.50;;;2.30;;
21733;SDS011;11029;47.820;10.534;2024-01-06T03:58:22;2.45;;;2.00;;
21733;SDS011;11029;47.820;10.534;2024-01-06T04:01:08;2.30;;;2.10;;
21733;SDS011;11029;47.820;10.534;2024-01-06T04:03:54;2.70;;;2.33;;
21733;SDS011;11029;47.820;10.534;2024-01-06T04:06:39;2.67;;;2.47;;
21733;SDS011;11029;47.820;10.534;2024-01-06T04:09:25;3.05;;;2.50;;
21733;SDS011;11029;47.820;10.534;2024-01-06T04:12:10;2.50;;;2.30;;
21733;SDS011;11029;47.820;10.534;2024-01-06T04:14:56;2.42;;;2.22;;
21733;SDS011;11029;47.820;10.534;2024-01-06T04:17:42;2.50;;;2.28;;
21733;SDS011;11029;47.820;10.534;2024-01-06T04:20:28;2.40;;;2.20;;
21733;SDS011;11029;47.820;10.534;2024-01-06T04:23:14;2.75;;;2.40;;
21733;SDS011;11029;47.820;10.534;2024-01-06T04:26:00;2.45;;;2.10;;
21733;SDS011;11029;47.820;10.534;2024-01-06T04:28:46;2.33;;;2.10;;
21733;SDS011;11029;47.820;10.534;2024-01-06T04:31:31;2.63;;;2.40;;
21733;SDS011;11029;47.820;10.534;2024-01-06T04:34:17;2.63;;;2.38;;
21733;SDS011;11029;47.820;10.534;2024-01-06T04:37:03;2.85;;;2.40;;
21733;SDS011;11029;47.820;10.534;2024-01-06T04:39:49;2.42;;;2.22;;
21733;SDS011;11029;47.820;10.534;2024-01-06T04:42:35;2.40;;;2.20;;
21733;SDS011;11029;47.820;10.534;2024-01-06T04:45:20;2.60;;;2.40;;
21733;SDS011;11029;47.820;10.534;2024-01-06T04:48:09;3.50;;;2.75;;
21733;SDS011;11029;47.820;10.534;2024-01-06T04:50:55;2.80;;;2.50;;
21733;SDS011;11029;47.820;10.534;2024-01-06T04:53:40;3.33;;;2.60;;
21733;SDS011;11029;47.820;10.534;2024-01-06T04:56:25;2.88;;;2.53;;
21733;SDS011;11029;47.820;10.534;2024-01-06T04:59:11;2.83;;;2.25;;
21733;SDS011;11029;47.820;10.534;2024-01-06T05:01:57;3.25;;;2.65;;
21733;SDS011;11029;47.820;10.534;2024-01-06T05:04:43;2.95;;;2.65;;
21733;SDS011;11029;47.820;10.534;2024-01-06T05:07:28;3.15;;;2.85;;
21733;SDS011;11029;47.820;10.534;2024-01-06T05:10:14;3.40;;;2.35;;
21733;SDS011;11029;47.820;10.534;2024-01-06T05:12:59;3.10;;;2.80;;
21733;SDS011;11029;47.820;10.534;2024-01-06T05:15:45;3.00;;;2.70;;
21733;SDS011;11029;47.820;10.534;2024-01-06T05:18:30;3.38;;;2.72;;
21733;SDS011;11029;47.820;10.534;2024-01-06T05:21:16;3.78;;;2.90;;
21733;SDS011;11029;47.820;10.534;2024-01-06T05:24:02;2.25;;;2.05;;
21733;SDS011;11029;47.820;10.534;2024-01-06T05:26:48;2.30;;;2.10;;
21733;SDS011;11029;47.820;10.534;2024-01-06T05:29:33;2.22;;;2.03;;
21733;SDS011;11029;47.820;10.534;2024-01-06T05:32:19;4.03;;;2.15;;
21733;SDS011;11029;47.820;10.534;2024-01-06T05:35:05;4.10;;;3.70;;
21733;SDS011;11029;47.820;10.534;2024-01-06T05:37:51;9.02;;;7.57;;
21733;SDS011;11029;47.820;10.534;2024-01-06T05:40:36;5.18;;;4.68;;
21733;SDS011;11029;47.820;10.534;2024-01-06T05:43:22;1.83;;;1.73;;
21733;SDS011;11029;47.820;10.534;2024-01-06T05:46:07;1.90;;;1.80;;
21733;SDS011;11029;47.820;10.534;2024-01-06T05:48:55;1.63;;;1.52;;
21733;SDS011;11029;47.820;10.534;2024-01-06T05:51:44;2.10;;;1.90;;
21733;SDS011;11029;47.820;10.534;2024-01-06T05:54:30;1.65;;;1.50;;
21733;SDS011;11029;47.820;10.534;2024-01-06T05:57:16;1.88;;;1.50;;
21733;SDS011;11029;47.820;10.534;2024-01-06T06:00:03;2.65;;;1.42;;
21733;SDS011;11029;47.820;10.534;2024-01-06T06:02:56;2.05;;;1.90;;
21733;SDS011;11029;47.820;10.534;2024-01-06T06:05:42;5.30;;;4.00;;
21733;SDS011;11029;47.820;10.534;2024-01-06T06:08:28;7.78;;;4.38;;
21733;SDS011;11029;47.820;10.534;2024-01-06T06:11:13;3.65;;;3.10;;
21733;SDS011;11029;47.820;10.534;2024-01-06T06:13:59;2.92;;;2.55;;
21733;SDS011;11029;47.820;10.534;2024-01-06T06:16:47;2.40;;;2.17;;
21733;SDS011;11029;47.820;10.534;2024-01-06T06:19:33;3.17;;;2.88;;
21733;SDS011;11029;47.820;10.534;2024-01-06T06:22:18;2.90;;;2.63;;
21733;SDS011;11029;47.820;10.534;2024-01-06T06:25:04;5.50;;;4.15;;
21733;SDS011;11029;47.820;10.534;2024-01-06T06:27:50;3.97;;;3.55;;
21733;SDS011;11029;47.820;10.534;2024-01-06T06:30:35;6.28;;;4.55;;
21733;SDS011;11029;47.820;10.534;2024-01-06T06:33:21;5.07;;;3.85;;
21733;SDS011;11029;47.820;10.534;2024-01-06T06:36:07;3.28;;;2.70;;
21733;SDS011;11029;47.820;10.534;2024-01-06T06:38:53;4.57;;;2.47;;
21733;SDS011;11029;47.820;10.534;2024-01-06T06:41:39;2.60;;;2.40;;
21733;SDS011;11029;47.820;10.534;2024-01-06T06:44:24;3.72;;;2.95;;
21733;SDS011;11029;47.820;10.534;2024-01-06T06:47:09;4.30;;;3.60;;
21733;SDS011;11029;47.820;10.534;2024-01-06T06:49:55;4.15;;;3.50;;
21733;SDS011;11029;47.820;10.534;2024-01-06T06:52:40;3.65;;;3.22;;
21733;SDS011;11029;47.820;10.534;2024-01-06T06:55:26;3.78;;;3.03;;
21733;SDS011;11029;47.820;10.534;2024-01-06T06:58:12;3.33;;;2.75;;
21733;SDS011;11029;47.820;10.534;2024-01-06T07:00:57;5.05;;;3.58;;
21733;SDS011;11029;47.820;10.534;2024-01-06T07:03:43;4.57;;;4.10;;
21733;SDS011;11029;47.820;10.534;2024-01-06T07:06:29;4.70;;;3.40;;
21733;SDS011;11029;47.820;10.534;2024-01-06T07:09:15;3.80;;;3.45;;
21733;SDS011;11029;47.820;10.534;2024-01-06T07:12:03;5.45;;;4.45;;
21733;SDS011;11029;47.820;10.534;2024-01-06T07:14:49;7.43;;;5.20;;
21733;SDS011;11029;47.820;10.534;2024-01-06T07:17:35;8.48;;;5.20;;
21733;SDS011;11029;47.820;10.534;2024-01-06T07:20:20;5.82;;;4.60;;
21733;SDS011;11029;47.820;10.534;2024-01-06T07:23:05;4.68;;;4.18;;
21733;SDS011;11029;47.820;10.534;2024-01-06T07:25:51;5.15;;;4.35;;
21733;SDS011;11029;47.820;10.534;2024-01-06T07:28:36;4.82;;;4.32;;
21733;SDS011;11029;47.820;10.534;2024-01-06T07:31:22;4.53;;;3.83;;
21733;SDS011;11029;47.820;10.534;2024-01-06T07:34:08;3.85;;;3.45;;
21733;SDS011;11029;47.820;10.534;2024-01-06T07:36:54;5.00;;;4.20;;
21733;SDS011;11029;47.820;10.534;2024-01-06T07:39:39;10.82;;;7.90;;
21733;SDS011;11029;47.820;10.534;2024-01-06T07:42:25;9.73;;;7.22;;
21733;SDS011;11029;47.820;10.534;2024-01-06T07:45:10;13.82;;;10.13;;
21733;SDS011;11029;47.820;10.534;2024-01-06T07:47:58;15.13;;;10.45;;
21733;SDS011;11029;47.820;10.534;2024-01-06T07:50:44;13.90;;;9.02;;
21733;SDS011;11029;47.820;10.534;2024-01-06T07:53:30;12.43;;;9.35;;
21733;SDS011;11029;47.820;10.534;2024-01-06T07:56:16;10.43;;;7.75;;
21733;SDS011;11029;47.820;10.534;2024-01-06T07:59:01;8.10;;;5.88;;
21733;SDS011;11029;47.820;10.534;2024-01-06T08:01:47;4.47;;;3.85;;
21733;SDS011;11029;47.820;10.534;2024-01-06T08:04:33;3.83;;;3.28;;
21733;SDS011;11029;47.820;10.534;2024-01-06T08:07:19;4.40;;;3.10;;
21733;SDS011;11029;47.820;10.534;2024-01-06T08:10:05;3.03;;;2.80;;
21733;SDS011;11029;47.820;10.534;2024-01-06T08:12:51;4.28;;;3.88;;
21733;SDS011;11029;47.820;10.534;2024-01-06T08:15:37;4.30;;;3.60;;
21733;SDS011;11029;47.820;10.534;2024-01-06T08:18:23;4.53;;;3.80;;
21733;SDS011;11029;47.820;10.534;2024-01-06T08:21:09;4.80;;;3.60;;
21733;SDS011;11029;47.820;10.534;2024-01-06T08:23:54;5.45;;;4.10;;
21733;SDS011;11029;47.820;10.534;2024-01-06T08:26:40;4.90;;;3.95;;
21733;SDS011;11029;47.820;10.534;2024-01-06T08:29:25;5.53;;;4.00;;
21733;SDS011;11029;47.820;10.534;2024-01-06T08:32:11;4.80;;;3.90;;
21733;SDS011;11029;47.820;10.534;2024-01-06T08:34:57;5.88;;;4.70;;
21733;SDS011;11029;47.820;10.534;2024-01-06T08:37:43;5.70;;;4.95;;
21733;SDS011;11029;47.820;10.534;2024-01-06T08:40:29;8.27;;;5.60;;
21733;SDS011;11029;47.820;10.534;2024-01-06T08:43:14;5.53;;;4.20;;
21733;SDS011;11029;47.820;10.534;2024-01-06T08:46:00;4.25;;;3.63;;
21733;SDS011;11029;47.820;10.534;2024-01-06T08:48:45;5.18;;;4.20;;
21733;SDS011;11029;47.820;10.534;2024-01-06T08:51:32;6.55;;;5.28;;
21733;SDS011;11029;47.820;10.534;2024-01-06T08:54:17;10.00;;;7.00;;
21733;SDS011;11029;47.820;10.534;2024-01-06T08:57:03;11.00;;;8.32;;
21733;SDS011;11029;47.820;10.534;2024-01-06T08:59:49;11.95;;;8.90;;
21733;SDS011;11029;47.820;10.534;2024-01-06T09:02:34;13.50;;;8.93;;
21733;SDS011;11029;47.820;10.534;2024-01-06T09:05:20;11.73;;;8.27;;
21733;SDS011;11029;47.820;10.534;2024-01-06T09:08:05;10.63;;;7.40;;
21733;SDS011;11029;47.820;10.534;2024-01-06T09:10:51;11.38;;;7.45;;
21733;SDS011;11029;47.820;10.534;2024-01-06T09:13:41;15.50;;;9.88;;
21733;SDS011;11029;47.820;10.534;2024-01-06T09:16:27;14.95;;;8.77;;
21733;SDS011;11029;47.820;10.534;2024-01-06T09:19:13;15.35;;;8.70;;
21733;SDS011;11029;47.820;10.534;2024-01-06T09:21:59;12.20;;;8.02;;
21733;SDS011;11029;47.820;10.534;2024-01-06T09:24:44;30.67;;;16.38;;
21733;SDS011;11029;47.820;10.534;2024-01-06T09:27:30;83.55;;;41.00;;
21733;SDS011;11029;47.820;10.534;2024-01-06T09:30:16;48.97;;;26.25;;
21733;SDS011;11029;47.820;10.534;2024-01-06T09:33:01;16.98;;;11.70;;
21733;SDS011;11029;47.820;10.534;2024-01-06T09:35:47;19.05;;;11.40;;
21733;SDS011;11029;47.820;10.534;2024-01-06T09:38:33;19.67;;;11.90;;
21733;SDS011;11029;47.820;10.534;2024-01-06T09:41:19;8.77;;;7.20;;
21733;SDS011;11029;47.820;10.534;2024-01-06T09:44:06;10.25;;;6.75;;
21733;SDS011;11029;47.820;10.534;2024-01-06T09:46:52;10.45;;;7.05;;
21733;SDS011;11029;47.820;10.534;2024-01-06T09:49:39;24.92;;;12.65;;
21733;SDS011;11029;47.820;10.534;2024-01-06T09:52:33;17.95;;;10.13;;
21733;SDS011;11029;47.820;10.534;2024-01-06T09:55:26;11.00;;;7.72;;
21733;SDS011;11029;47.820;10.534;2024-01-06T09:58:11;6.80;;;5.60;;
21733;SDS011;11029;47.820;10.534;2024-01-06T10:00:57;9.93;;;6.30;;
21733;SDS011;11029;47.820;10.534;2024-01-06T10:03:45;9.20;;;5.75;;
21733;SDS011;11029;47.820;10.534;2024-01-06T10:06:31;9.65;;;6.95;;
21733;SDS011;11029;47.820;10.534;2024-01-06T10:09:18;9.48;;;6.35;;
21733;SDS011;11029;47.820;10.534;2024-01-06T10:12:12;10.23;;;6.75;;
21733;SDS011;11029;47.820;10.534;2024-01-06T10:14:58;14.93;;;7.72;;
21733;SDS011;11029;47.820;10.534;2024-01-06T10:17:44;9.63;;;6.82;;
21733;SDS011;11029;47.820;10.534;2024-01-06T10:20:30;12.23;;;7.70;;
21733;SDS011;11029;47.820;10.534;2024-01-06T10:23:16;11.48;;;7.28;;
21733;SDS011;11029;47.820;10.534;2024-01-06T10:26:01;9.50;;;5.97;;
21733;SDS011;11029;47.820;10.534;2024-01-06T10:28:49;8.52;;;6.38;;
21733;SDS011;11029;47.820;10.534;2024-01-06T10:31:36;9.05;;;6.20;;
21733;SDS011;11029;47.820;10.534;2024-01-06T10:34:22;13.90;;;10.35;;
21733;SDS011;11029;47.820;10.534;2024-01-06T10:37:08;8.30;;;6.88;;
21733;SDS011;11029;47.820;10.534;2024-01-06T10:42:58;7.93;;;5.80;;
21733;SDS011;11029;47.820;10.534;2024-01-06T10:45:46;9.23;;;6.53;;
21733;SDS011;11029;47.820;10.534;2024-01-06T10:48:32;9.57;;;7.20;;
21733;SDS011;11029;47.820;10.534;2024-01-06T10:51:23;9.45;;;6.22;;
21733;SDS011;11029;47.820;10.534;2024-01-06T10:54:11;8.57;;;5.93;;
21733;SDS011;11029;47.820;10.534;2024-01-06T10:56:59;8.10;;;5.70;;
21733;SDS011;11029;47.820;10.534;2024-01-06T10:59:46;14.68;;;8.68;;
21733;SDS011;11029;47.820;10.534;2024-01-06T11:02:37;10.70;;;6.63;;
21733;SDS011;11029;47.820;10.534;2024-01-06T11:05:24;4.70;;;3.42;;
21733;SDS011;11029;47.820;10.534;2024-01-06T11:08:10;8.02;;;4.40;;
21733;SDS011;11029;47.820;10.534;2024-01-06T11:10:56;5.50;;;4.30;;
21733;SDS011;11029;47.820;10.534;2024-01-06T11:13:42;5.18;;;4.05;;
21733;SDS011;11029;47.820;10.534;2024-01-06T11:16:33;5.25;;;3.38;;
21733;SDS011;11029;47.820;10.534;2024-01-06T11:22:28;4.53;;;3.60;;
21733;SDS011;11029;47.820;10.534;2024-01-06T11:25:18;5.13;;;4.05;;
21733;SDS011;11029;47.820;10.534;2024-01-06T11:28:07;6.93;;;4.05;;
21733;SDS011;11029;47.820;10.534;2024-01-06T11:31:09;5.53;;;4.35;;
21733;SDS011;11029;47.820;10.534;2024-01-06T11:33:55;6.00;;;3.53;;
21733;SDS011;11029;47.820;10.534;2024-01-06T11:36:43;3.88;;;3.10;;
21733;SDS011;11029;47.820;10.534;2024-01-06T11:39:40;4.47;;;3.03;;
21733;SDS011;11029;47.820;10.534;2024-01-06T11:42:33;3.30;;;2.30;;
21733;SDS011;11029;47.820;10.534;2024-01-06T11:45:20;2.13;;;1.90;;
21733;SDS011;11029;47.820;10.534;2024-01-06T11:48:07;1.80;;;1.70;;
21733;SDS011;11029;47.820;10.534;2024-01-06T11:50:57;3.75;;;1.98;;
21733;SDS011;11029;47.820;10.534;2024-01-06T11:53:44;3.40;;;2.03;;
21733;SDS011;11029;47.820;10.534;2024-01-06T11:56:31;3.80;;;2.30;;
21733;SDS011;11029;47.820;10.534;2024-01-06T11:59:16;2.90;;;2.05;;
21733;SDS011;11029;47.820;10.534;2024-01-06T12:02:02;3.05;;;2.20;;
21733;SDS011;11029;47.820;10.534;2024-01-06T12:04:52;2.78;;;2.42;;
21733;SDS011;11029;47.820;10.534;2024-01-06T12:07:39;3.13;;;2.30;;
21733;SDS011;11029;47.820;10.534;2024-01-06T12:10:27;1.80;;;1.70;;
21733;SDS011;11029;47.820;10.534;2024-01-06T12:13:14;2.40;;;2.20;;
21733;SDS011;11029;47.820;10.534;2024-01-06T12:16:02;2.50;;;2.17;;
21733;SDS011;11029;47.820;10.534;2024-01-06T12:18:49;2.55;;;2.20;;
21733;SDS011;11029;47.820;10.534;2024-01-06T12:21:35;4.47;;;2.80;;
21733;SDS011;11029;47.820;10.534;2024-01-06T12:24:23;4.15;;;2.75;;
21733;SDS011;11029;47.820;10.534;2024-01-06T12:27:09;4.30;;;3.28;;
21733;SDS011;11029;47.820;10.534;2024-01-06T12:29:56;3.70;;;2.60;;
21733;SDS011;11029;47.820;10.534;2024-01-06T12:32:48;4.65;;;3.17;;
21733;SDS011;11029;47.820;10.534;2024-01-06T12:35:37;4.13;;;2.38;;
21733;SDS011;11029;47.820;10.534;2024-01-06T12:38:23;4.60;;;2.90;;
21733;SDS011;11029;47.820;10.534;2024-01-06T12:41:12;3.97;;;3.05;;
21733;SDS011;11029;47.820;10.534;2024-01-06T12:43:58;5.57;;;3.70;;
21733;SDS011;11029;47.820;10.534;2024-01-06T12:46:45;3.97;;;3.22;;
21733;SDS011;11029;47.820;10.534;2024-01-06T12:49:30;5.63;;;3.70;;
21733;SDS011;11029;47.820;10.534;2024-01-06T12:52:16;4.22;;;3.45;;
21733;SDS011;11029;47.820;10.534;2024-01-06T12:55:02;7.10;;;4.85;;
21733;SDS011;11029;47.820;10.534;2024-01-06T12:57:48;9.00;;;5.40;;
21733;SDS011;11029;47.820;10.534;2024-01-06T13:00:34;5.00;;;3.88;;
21733;SDS011;11029;47.820;10.534;2024-01-06T13:03:21;4.20;;;3.40;;
21733;SDS011;11029;47.820;10.534;2024-01-06T13:06:07;3.85;;;3.00;;
21733;SDS011;11029;47.820;10.534;2024-01-06T13:08:53;3.53;;;2.72;;
21733;SDS011;11029;47.820;10.534;2024-01-06T13:11:38;3.05;;;2.55;;
21733;SDS011;11029;47.820;10.534;2024-01-06T13:14:24;4.32;;;2.80;;
21733;SDS011;11029;47.820;10.534;2024-01-06T13:17:09;4.72;;;2.80;;
21733;SDS011;11029;47.820;10.534;2024-01-06T13:19:54;10.10;;;5.35;;
21733;SDS011;11029;47.820;10.534;2024-01-06T13:22:41;6.55;;;4.70;;
21733;SDS011;11029;47.820;10.534;2024-01-06T13:25:27;4.95;;;3.60;;
21733;SDS011;11029;47.820;10.534;2024-01-06T13:28:13;7.45;;;3.83;;
21733;SDS011;11029;47.820;10.534;2024-01-06T13:30:59;5.45;;;3.72;;
21733;SDS011;11029;47.820;10.534;2024-01-06T13:33:45;5.25;;;4.10;;
21733;SDS011;11029;47.820;10.534;2024-01-06T13:36:30;6.97;;;3.72;;
21733;SDS011;11029;47.820;10.534;2024-01-06T13:39:16;6.63;;;5.35;;
21733;SDS011;11029;47.820;10.534;2024-01-06T13:42:07;6.63;;;4.70;;
21733;SDS011;11029;47.820;10.534;2024-01-06T13:44:53;7.20;;;5.15;;
21733;SDS011;11029;47.820;10.534;2024-01-06T13:47:39;8.00;;;5.78;;
21733;SDS011;11029;47.820;10.534;2024-01-06T13:50:30;18.55;;;9.80;;
21733;SDS011;11029;47.820;10.534;2024-01-06T13:53:15;12.63;;;6.50;;
21733;SDS011;11029;47.820;10.534;2024-01-06T13:56:01;30.52;;;13.10;;
21733;SDS011;11029;47.820;10.534;2024-01-06T13:58:48;10.30;;;6.57;;
21733;SDS011;11029;47.820;10.534;2024-01-06T14:01:33;13.75;;;9.02;;
21733;SDS011;11029;47.820;10.534;2024-01-06T14:04:20;12.32;;;7.20;;
21733;SDS011;11029;47.820;10.534;2024-01-06T14:07:08;14.25;;;9.50;;
21733;SDS011;11029;47.820;10.534;2024-01-06T14:09:55;9.52;;;6.85;;
21733;SDS011;11029;47.820;10.534;2024-01-06T14:12:41;5.47;;;3.50;;
21733;SDS011;11029;47.820;10.534;2024-01-06T14:15:26;5.53;;;3.20;;
21733;SDS011;11029;47.820;10.534;2024-01-06T14:18:12;5.15;;;3.05;;
21733;SDS011;11029;47.820;10.534;2024-01-06T14:21:01;4.63;;;3.33;;
21733;SDS011;11029;47.820;10.534;2024-01-06T14:23:47;7.25;;;6.43;;
21733;SDS011;11029;47.820;10.534;2024-01-06T14:26:34;8.50;;;5.70;;
21733;SDS011;11029;47.820;10.534;2024-01-06T14:29:20;18.35;;;12.57;;
21733;SDS011;11029;47.820;10.534;2024-01-06T14:32:06;20.05;;;14.40;;
21733;SDS011;11029;47.820;10.534;2024-01-06T14:34:51;10.90;;;7.85;;
21733;SDS011;11029;47.820;10.534;2024-01-06T14:37:38;9.75;;;7.00;;
21733;SDS011;11029;47.820;10.534;2024-01-06T14:40:23;23.25;;;12.35;;
21733;SDS011;11029;47.820;10.534;2024-01-06T14:43:09;15.95;;;8.93;;
21733;SDS011;11029;47.820;10.534;2024-01-06T14:45:55;13.88;;;7.85;;
21733;SDS011;11029;47.820;10.534;2024-01-06T14:48:41;10.77;;;8.60;;
21733;SDS011;11029;47.820;10.534;2024-01-06T14:51:27;9.85;;;6.63;;
21733;SDS011;11029;47.820;10.534;2024-01-06T14:54:12;7.00;;;4.68;;
21733;SDS011;11029;47.820;10.534;2024-01-06T14:56:58;11.50;;;6.10;;
21733;SDS011;11029;47.820;10.534;2024-01-06T14:59:44;10.90;;;7.63;;
21733;SDS011;11029;47.820;10.534;2024-01-06T15:02:29;9.88;;;6.78;;
21733;SDS011;11029;47.820;10.534;2024-01-06T15:05:15;8.52;;;6.20;;
21733;SDS011;11029;47.820;10.534;2024-01-06T15:08:01;7.28;;;5.18;;
21733;SDS011;11029;47.820;10.534;2024-01-06T15:10:46;5.65;;;4.28;;
21733;SDS011;11029;47.820;10.534;2024-01-06T15:13:32;6.82;;;5.20;;
21733;SDS011;11029;47.820;10.534;2024-01-06T15:16:17;7.07;;;4.75;;
21733;SDS011;11029;47.820;10.534;2024-01-06T15:19:03;6.80;;;5.00;;
21733;SDS011;11029;47.820;10.534;2024-01-06T15:21:49;6.88;;;4.68;;
21733;SDS011;11029;47.820;10.534;2024-01-06T15:24:35;6.63;;;4.85;;
21733;SDS011;11029;47.820;10.534;2024-01-06T15:27:20;8.68;;;6.20;;
21733;SDS011;11029;47.820;10.534;2024-01-06T15:30:06;5.65;;;4.85;;
21733;SDS011;11029;47.820;10.534;2024-01-06T15:32:53;4.65;;;3.85;;
21733;SDS011;11029;47.820;10.534;2024-01-06T15:35:39;5.88;;;3.97;;
21733;SDS011;11029;47.820;10.534;2024-01-06T15:38:25;5.70;;;4.28;;
21733;SDS011;11029;47.820;10.534;2024-01-06T15:41:11;4.88;;;3.83;;
21733;SDS011;11029;47.820;10.534;2024-01-06T15:43:57;5.38;;;3.95;;
21733;SDS011;11029;47.820;10.534;2024-01-06T15:46:43;6.03;;;4.28;;
21733;SDS011;11029;47.820;10.534;2024-01-06T15:49:28;6.57;;;4.90;;
21733;SDS011;11029;47.820;10.534;2024-01-06T15:52:14;6.38;;;5.22;;
21733;SDS011;11029;47.820;10.534;2024-01-06T15:54:59;8.45;;;5.90;;
21733;SDS011;11029;47.820;10.534;2024-01-06T15:57:45;8.02;;;5.40;;
21733;SDS011;11029;47.820;10.534;2024-01-06T16:00:31;9.57;;;5.72;;
21733;SDS011;11029;47.820;10.534;2024-01-06T16:03:20;6.95;;;5.00;;
21733;SDS011;11029;47.820;10.534;2024-01-06T16:06:06;8.15;;;5.55;;
21733;SDS011;11029;47.820;10.534;2024-01-06T16:08:52;10.77;;;8.43;;
21733;SDS011;11029;47.820;10.534;2024-01-06T16:11:38;14.43;;;9.88;;
21733;SDS011;11029;47.820;10.534;2024-01-06T16:14:24;16.45;;;9.02;;
21733;SDS011;11029;47.820;10.534;2024-01-06T16:17:10;11.05;;;8.18;;
21733;SDS011;11029;47.820;10.534;2024-01-06T16:19:56;8.15;;;6.43;;
21733;SDS011;11029;47.820;10.534;2024-01-06T16:22:41;8.18;;;5.07;;
21733;SDS011;11029;47.820;10.534;2024-01-06T16:25:27;4.47;;;4.00;;
21733;SDS011;11029;47.820;10.534;2024-01-06T16:28:12;7.57;;;4.63;;